createdAt,value
2018-10-18T00:00:20.730Z,41.67
2018-10-18T00:02:51.050Z,45.33
2018-10-18T00:05:21.337Z,41.13
2018-10-18T00:07:51.748Z,40.40
2018-10-18T00:10:21.997Z,41.67
2018-10-18T00:12:52.343Z,40.80
2018-10-18T00:15:22.681Z,40.23
2018-10-18T00:17:53.092Z,41.40
2018-10-18T00:20:23.336Z,41.67
2018-10-18T00:22:53.685Z,43.63
2018-10-18T00:25:23.985Z,45.17
2018-10-18T00:27:54.330Z,42.10
2018-10-18T00:30:24.616Z,46.60
2018-10-18T00:32:55.140Z,44.93
2018-10-18T00:35:26.379Z,46.20
2018-10-18T00:37:56.715Z,44.30
2018-10-18T00:40:27.153Z,44.40
2018-10-18T00:42:58.011Z,45.47
2018-10-18T00:45:28.522Z,45.50
2018-10-18T00:47:58.966Z,46.90
2018-10-18T00:50:30.001Z,45.67
2018-10-18T00:53:00.305Z,48.13
2018-10-18T00:55:31.097Z,50.37
2018-10-18T00:58:01.440Z,47.70
2018-10-18T01:00:32.182Z,55.23
2018-10-18T01:03:02.506Z,49.50
2018-10-18T01:05:33.215Z,48.80
2018-10-18T01:08:03.527Z,53.23
2018-10-18T01:10:34.425Z,49.37
2018-10-18T01:13:04.698Z,52.50
2018-10-18T01:15:34.982Z,53.10
2018-10-18T01:18:05.768Z,48.73
2018-10-18T01:20:35.899Z,47.80
2018-10-18T01:23:06.635Z,53.20
2018-10-18T01:25:36.891Z,46.30
2018-10-18T01:28:07.297Z,47.47
2018-10-18T01:30:37.546Z,49.50
2018-10-18T01:33:07.822Z,47.00
2018-10-18T01:35:38.169Z,48.23
2018-10-18T01:38:08.953Z,47.60
2018-10-18T01:40:39.279Z,49.27
2018-10-18T01:43:09.738Z,51.70
2018-10-18T01:45:40.051Z,49.30
2018-10-18T01:48:10.504Z,48.00
2018-10-18T01:50:40.782Z,47.73
2018-10-18T01:53:11.114Z,48.30
2018-10-18T01:55:41.420Z,50.37
2018-10-18T01:58:11.867Z,52.37
2018-10-18T02:00:42.180Z,50.03
2018-10-18T02:03:12.533Z,50.80
2018-10-18T02:05:42.983Z,57.67
2018-10-18T02:08:13.368Z,51.50
2018-10-18T02:10:43.990Z,55.13
2018-10-18T02:13:14.307Z,49.90
2018-10-18T02:15:44.670Z,53.30
2018-10-18T02:18:15.079Z,53.23
2018-10-18T02:20:45.313Z,47.87
2018-10-18T02:23:15.592Z,49.23
2018-10-18T02:25:45.941Z,48.10
2018-10-18T02:28:16.244Z,48.93
2018-10-18T02:30:46.578Z,49.87
2018-10-18T02:33:16.885Z,51.90
2018-10-18T02:35:47.315Z,51.23
2018-10-18T02:38:17.647Z,50.23
2018-10-18T02:40:47.946Z,51.97
2018-10-18T02:43:18.320Z,55.70
2018-10-18T02:45:48.630Z,55.70
2018-10-18T02:48:19.051Z,54.23
2018-10-18T02:50:49.287Z,55.50
2018-10-18T02:53:19.790Z,50.37
2018-10-18T02:55:50.083Z,52.13
2018-10-18T02:58:20.422Z,52.87
2018-10-18T03:00:50.731Z,53.47
2018-10-18T03:03:21.059Z,52.37
2018-10-18T03:05:51.371Z,50.77
2018-10-18T03:08:21.707Z,56.30
2018-10-18T03:10:52.019Z,49.90
2018-10-18T03:13:22.322Z,55.30
2018-10-18T03:15:52.622Z,51.83
2018-10-18T03:18:22.950Z,56.67
2018-10-18T03:20:53.246Z,57.40
2018-10-18T03:23:23.581Z,57.67
2018-10-18T03:25:53.855Z,60.27
2018-10-18T03:28:24.189Z,59.60
2018-10-18T03:30:54.493Z,57.43
2018-10-18T03:33:24.882Z,53.60
2018-10-18T03:35:55.166Z,58.87
2018-10-18T03:38:25.448Z,58.03
2018-10-18T03:40:55.682Z,62.37
2018-10-18T03:43:26.546Z,59.93
2018-10-18T03:45:58.091Z,63.40
2018-10-18T03:48:28.790Z,88.10
2018-10-18T03:50:59.051Z,81.80
2018-10-18T03:53:29.407Z,77.77
2018-10-18T03:55:59.659Z,69.27
2018-10-18T03:58:29.950Z,67.80
2018-10-18T04:01:00.182Z,69.13
2018-10-18T04:03:30.988Z,67.33
2018-10-18T04:06:01.327Z,69.83
2018-10-18T04:08:31.666Z,65.30
2018-10-18T04:11:01.981Z,63.10
2018-10-18T04:13:32.578Z,70.00
2018-10-18T04:16:02.862Z,79.33
2018-10-18T04:18:33.296Z,90.17
2018-10-18T04:21:03.672Z,91.63
2018-10-18T04:23:34.762Z,80.67
2018-10-18T04:26:05.275Z,82.97
2018-10-18T04:28:35.681Z,83.57
2018-10-18T04:31:06.115Z,77.43
2018-10-18T04:33:36.478Z,80.73
2018-10-18T04:36:06.852Z,81.17
2018-10-18T04:38:37.351Z,78.80
2018-10-18T04:41:07.626Z,90.10
2018-10-18T04:43:38.123Z,86.00
2018-10-18T04:46:08.410Z,75.67
2018-10-18T04:48:38.792Z,80.33
2018-10-18T04:51:09.062Z,75.20
2018-10-18T04:53:40.288Z,72.17
2018-10-18T04:56:10.902Z,70.87
2018-10-18T04:58:41.491Z,65.87
2018-10-18T05:01:17.836Z,67.70
2018-10-18T05:03:48.098Z,70.40
2018-10-18T05:06:18.414Z,66.97
2018-10-18T05:08:48.931Z,66.70
2018-10-18T05:11:19.353Z,67.95
2018-10-18T05:13:50.808Z,64.37
2018-10-18T05:16:21.478Z,69.23
2018-10-18T05:18:51.983Z,67.65
2018-10-18T05:21:22.291Z,69.30
2018-10-18T05:23:52.634Z,75.90
2018-10-18T05:26:22.943Z,72.03
2018-10-18T05:28:53.290Z,69.75
2018-10-18T05:31:23.631Z,78.63
2018-10-18T05:33:53.913Z,68.77
2018-10-18T05:36:24.215Z,70.20
2018-10-18T05:38:54.508Z,73.73
2018-10-18T05:41:24.897Z,72.13
2018-10-18T05:43:55.195Z,70.80
2018-10-18T05:46:25.781Z,73.37
2018-10-18T05:48:56.522Z,64.20
2018-10-18T05:51:26.881Z,69.13
2018-10-18T05:53:57.560Z,64.37
2018-10-18T05:56:28.008Z,69.80
2018-10-18T05:58:58.489Z,68.67
2018-10-18T06:01:28.787Z,68.90
2018-10-18T06:03:59.838Z,67.03
2018-10-18T06:06:30.091Z,69.90
2018-10-18T06:09:00.361Z,61.50
2018-10-18T06:11:32.537Z,67.43
2018-10-18T06:14:02.822Z,65.40
2018-10-18T06:16:33.294Z,64.40
2018-10-18T06:19:03.583Z,67.77
2018-10-18T06:21:33.980Z,65.43
2018-10-18T06:24:04.541Z,65.10
2018-10-18T06:26:35.020Z,65.67
2018-10-18T06:29:05.583Z,66.57
2018-10-18T06:31:36.033Z,64.57
2018-10-18T06:34:06.889Z,69.10
2018-10-18T06:36:37.171Z,68.23
2018-10-18T06:39:10.071Z,71.43
2018-10-18T06:41:41.015Z,68.50
2018-10-18T06:44:11.331Z,68.43
2018-10-18T06:46:41.689Z,68.90
2018-10-18T06:49:12.024Z,71.13
2018-10-18T06:51:42.365Z,69.17
2018-10-18T06:54:12.686Z,67.57
2018-10-18T06:56:43.306Z,66.80
2018-10-18T06:59:13.675Z,69.37
2018-10-18T07:01:44.298Z,101.33
2018-10-18T07:04:14.642Z,119.77
2018-10-18T07:06:44.950Z,123.13
2018-10-18T07:09:15.257Z,103.47
2018-10-18T07:11:45.541Z,76.20
2018-10-18T07:14:15.881Z,77.70
2018-10-18T07:16:46.168Z,80.53
2018-10-18T07:19:16.493Z,71.53
2018-10-18T07:21:46.763Z,77.07
2018-10-18T07:24:17.307Z,71.80
2018-10-18T07:26:47.522Z,75.10
2018-10-18T07:29:17.822Z,75.83
2018-10-18T07:31:48.085Z,70.00
2018-10-18T07:34:18.423Z,74.97
2018-10-18T07:36:48.796Z,70.80
2018-10-18T07:39:19.163Z,86.60
2018-10-18T07:41:49.500Z,78.27
2018-10-18T07:44:19.821Z,76.40
2018-10-18T07:46:50.155Z,81.77
2018-10-18T07:49:20.424Z,91.80
2018-10-18T07:51:50.716Z,93.10
2018-10-18T07:54:21.033Z,87.97
2018-10-18T07:56:51.354Z,77.87
2018-10-18T07:59:21.661Z,86.33
2018-10-18T08:01:51.954Z,72.93
2018-10-18T08:04:22.262Z,78.90
2018-10-18T08:06:52.577Z,77.50
2018-10-18T08:09:22.876Z,73.30
2018-10-18T08:11:53.223Z,74.23
2018-10-18T08:14:23.571Z,61.43
2018-10-18T08:16:53.899Z,59.13
2018-10-18T08:19:24.188Z,66.10
2018-10-18T08:21:54.885Z,62.90
2018-10-18T08:24:25.222Z,65.63
2018-10-18T08:26:55.538Z,65.03
2018-10-18T08:29:25.836Z,67.87
2018-10-18T08:31:56.117Z,72.13
2018-10-18T08:34:27.068Z,70.07
2018-10-18T08:36:57.337Z,69.33
2018-10-18T08:39:27.709Z,70.50
2018-10-18T08:41:58.331Z,69.27
2018-10-18T08:44:29.311Z,75.20
2018-10-18T08:46:59.687Z,73.10
2018-10-18T08:49:29.914Z,71.33
2018-10-18T08:52:00.282Z,67.77
2018-10-18T08:54:31.088Z,67.40
2018-10-18T08:57:01.319Z,66.53
2018-10-18T08:59:31.686Z,67.43
2018-10-18T09:02:01.944Z,68.63
2018-10-18T09:04:32.285Z,64.50
2018-10-18T09:07:02.616Z,72.27
2018-10-18T09:09:33.282Z,68.00
2018-10-18T09:12:03.597Z,64.27
2018-10-18T09:14:33.934Z,63.90
2018-10-18T09:17:04.318Z,65.13
2018-10-18T09:19:34.626Z,59.80
2018-10-18T09:22:05.526Z,59.70
2018-10-18T09:24:36.320Z,74.60
2018-10-18T09:27:06.562Z,53.63
2018-10-18T09:29:37.043Z,63.17
2018-10-18T09:32:07.282Z,55.73
2018-10-18T09:34:38.099Z,51.07
2018-10-18T09:37:08.337Z,54.07
2018-10-18T09:39:38.611Z,62.73
2018-10-18T09:42:08.878Z,55.97
2018-10-18T09:44:39.155Z,52.80
2018-10-18T09:47:09.435Z,60.00
2018-10-18T09:49:39.715Z,58.37
2018-10-18T09:52:09.941Z,56.67
2018-10-18T09:54:40.215Z,51.33
2018-10-18T09:57:10.450Z,50.73
2018-10-18T09:59:40.694Z,48.20
2018-10-18T10:02:15.990Z,59.03
2018-10-18T10:04:46.246Z,46.77
2018-10-18T10:07:16.555Z,48.20
2018-10-18T10:09:46.743Z,49.40
2018-10-18T10:12:17.096Z,42.17
2018-10-18T10:14:47.648Z,45.50
2018-10-18T10:17:17.955Z,44.30
2018-10-18T10:19:48.140Z,40.40
2018-10-18T10:22:18.358Z,39.97
2018-10-18T10:24:48.653Z,40.90
2018-10-18T10:27:18.846Z,39.47
2018-10-18T10:29:49.095Z,34.10
2018-10-18T10:32:19.466Z,37.70
2018-10-18T10:34:49.823Z,40.90
2018-10-18T10:37:20.118Z,36.17
2018-10-18T10:39:50.435Z,37.57
2018-10-18T10:42:20.741Z,36.20
2018-10-18T10:44:51.101Z,39.33
2018-10-18T10:47:21.341Z,36.90
2018-10-18T10:49:51.676Z,37.13
2018-10-18T10:52:21.984Z,36.20
2018-10-18T10:54:52.288Z,38.03
2018-10-18T10:57:23.062Z,38.53
2018-10-18T10:59:55.768Z,36.23
2018-10-18T11:02:26.158Z,36.77
2018-10-18T11:04:56.466Z,39.80
2018-10-18T11:07:26.995Z,34.87
2018-10-18T11:10:02.025Z,36.30
2018-10-18T11:12:32.518Z,35.50
2018-10-18T11:15:02.874Z,37.80
2018-10-18T11:17:33.416Z,35.23
2018-10-18T11:20:03.808Z,35.07
2018-10-18T11:22:34.037Z,34.17
2018-10-18T11:25:04.371Z,32.37
2018-10-18T11:27:34.870Z,39.10
2018-10-18T11:30:05.237Z,40.33
2018-10-18T11:32:35.795Z,40.90
2018-10-18T11:35:06.535Z,40.10
2018-10-18T11:37:37.233Z,39.83
2018-10-18T11:40:08.208Z,35.03
2018-10-18T11:42:38.635Z,36.00
2018-10-18T11:45:08.875Z,38.20
2018-10-18T11:47:39.320Z,35.73
2018-10-18T11:50:10.175Z,35.97
2018-10-18T11:52:40.363Z,35.33
2018-10-18T11:55:10.638Z,33.60
2018-10-18T11:57:41.431Z,33.90
2018-10-18T12:00:15.977Z,34.47
2018-10-18T12:02:47.179Z,35.00
2018-10-18T12:05:17.459Z,37.60
2018-10-18T12:07:47.664Z,34.43
2018-10-18T12:10:17.927Z,37.73
2018-10-18T12:12:48.171Z,36.67
2018-10-18T12:15:18.474Z,34.93
2018-10-18T12:17:48.750Z,36.30
2018-10-18T12:20:19.361Z,32.10
2018-10-18T12:22:49.471Z,36.30
2018-10-18T12:25:19.730Z,34.90
2018-10-18T12:27:49.971Z,35.60
2018-10-18T12:30:20.246Z,38.57
2018-10-18T12:32:50.479Z,36.43
2018-10-18T12:35:20.775Z,35.37
2018-10-18T12:37:51.038Z,36.40
2018-10-18T12:40:21.478Z,33.57
2018-10-18T12:42:52.098Z,35.07
2018-10-18T12:45:22.346Z,37.77
2018-10-18T12:47:52.619Z,32.47
2018-10-18T12:50:22.875Z,32.67
2018-10-18T12:52:54.834Z,34.87
2018-10-18T12:55:25.091Z,35.40
2018-10-18T12:57:55.562Z,38.80
2018-10-18T13:00:25.835Z,36.30
2018-10-18T13:02:56.111Z,36.03
2018-10-18T13:05:26.595Z,37.50
2018-10-18T13:07:56.851Z,40.60
2018-10-18T13:10:27.218Z,37.20
2018-10-18T13:12:57.437Z,34.83
2018-10-18T13:15:28.071Z,34.77
2018-10-18T13:17:58.363Z,42.67
2018-10-18T13:20:28.789Z,34.87
2018-10-18T13:22:59.016Z,34.33
2018-10-18T13:25:30.066Z,34.43
2018-10-18T13:28:00.344Z,39.33
2018-10-18T13:30:31.015Z,35.63
2018-10-18T13:33:01.240Z,35.10
2018-10-18T13:35:32.069Z,39.00
2018-10-18T13:38:02.348Z,36.60
2018-10-18T13:40:32.730Z,39.57
2018-10-18T13:43:03.054Z,41.03
2018-10-18T13:45:33.315Z,38.50
2018-10-18T13:48:03.601Z,42.50
2018-10-18T13:50:34.043Z,40.47
2018-10-18T13:53:06.268Z,44.30
2018-10-18T13:55:37.026Z,38.07
2018-10-18T13:58:07.294Z,40.07
2018-10-18T14:00:37.805Z,39.07
2018-10-18T14:03:08.066Z,36.73
2018-10-18T14:05:38.455Z,36.53
2018-10-18T14:08:08.668Z,43.23
2018-10-18T14:10:39.059Z,44.80
2018-10-18T14:13:09.339Z,35.57
2018-10-18T14:15:39.623Z,35.43
2018-10-18T14:18:09.967Z,36.47
2018-10-18T14:20:40.255Z,38.33
2018-10-18T14:23:10.595Z,35.93
2018-10-18T14:25:41.283Z,39.37
2018-10-18T14:28:11.524Z,35.93
2018-10-18T14:30:42.127Z,38.23
2018-10-18T14:33:12.286Z,37.23
2018-10-18T14:35:42.989Z,36.50
2018-10-18T14:38:13.281Z,37.97
2018-10-18T14:40:43.795Z,35.67
2018-10-18T14:43:14.342Z,39.80
2018-10-18T14:45:44.701Z,37.57
2018-10-18T14:48:14.960Z,36.73
2018-10-18T14:50:45.603Z,35.33
2018-10-18T14:53:15.802Z,37.70
2018-10-18T14:55:46.083Z,36.00
2018-10-18T14:58:16.342Z,40.20
2018-10-18T15:00:46.623Z,36.10
2018-10-18T15:03:16.874Z,37.37
2018-10-18T15:05:47.152Z,40.67
2018-10-18T15:08:17.434Z,43.90
2018-10-18T15:10:47.727Z,40.67
2018-10-18T15:13:17.974Z,41.97
2018-10-18T15:15:48.267Z,40.30
2018-10-18T15:18:18.628Z,43.03
2018-10-18T15:20:48.921Z,42.67
2018-10-18T15:23:19.174Z,41.07
2018-10-18T15:25:49.658Z,43.83
2018-10-18T15:28:19.854Z,42.00
2018-10-18T15:30:50.181Z,41.63
2018-10-18T15:33:20.456Z,41.70
2018-10-18T15:35:50.769Z,40.17
2018-10-18T15:38:21.188Z,40.93
2018-10-18T15:40:51.608Z,39.20
2018-10-18T15:43:21.854Z,42.40
2018-10-18T15:45:52.134Z,42.93
2018-10-18T15:48:22.397Z,40.73
2018-10-18T15:50:52.735Z,42.70
2018-10-18T15:53:23.043Z,40.83
2018-10-18T15:55:53.305Z,42.67
2018-10-18T15:58:23.891Z,39.63
2018-10-18T16:00:54.287Z,40.90
2018-10-18T16:03:24.539Z,41.40
2018-10-18T16:05:55.334Z,36.33
2018-10-18T16:08:26.613Z,34.37
2018-10-18T16:10:57.290Z,33.53
2018-10-18T16:13:27.875Z,35.10
2018-10-18T16:15:58.501Z,39.23
2018-10-18T16:18:29.202Z,34.50
2018-10-18T16:20:59.990Z,34.13
2018-10-18T16:23:30.310Z,35.63
2018-10-18T16:26:00.847Z,32.40
2018-10-18T16:28:31.589Z,37.00
2018-10-18T16:31:01.995Z,34.43
2018-10-18T16:33:32.371Z,37.67
2018-10-18T16:36:02.950Z,33.67
2018-10-18T16:38:33.388Z,33.63
2018-10-18T16:41:03.868Z,36.37
2018-10-18T16:43:33.962Z,33.73
2018-10-18T16:46:04.323Z,35.83
2018-10-18T16:48:34.874Z,36.43
2018-10-18T16:51:05.318Z,35.83
2018-10-18T16:53:35.851Z,41.27
2018-10-18T16:56:06.258Z,42.37
2018-10-18T16:58:36.917Z,33.80
2018-10-18T17:01:08.443Z,35.00
2018-10-18T17:03:38.694Z,37.53
2018-10-18T17:06:09.083Z,36.80
2018-10-18T17:08:39.232Z,35.03
2018-10-18T17:11:09.583Z,35.30
2018-10-18T17:13:39.787Z,38.00
2018-10-18T17:16:10.126Z,39.80
2018-10-18T17:18:40.424Z,36.13
2018-10-18T17:21:10.754Z,38.73
2018-10-18T17:23:41.129Z,35.90
2018-10-18T17:26:11.634Z,39.43
2018-10-18T17:28:41.911Z,35.20
2018-10-18T17:31:12.179Z,36.53
2018-10-18T17:33:42.923Z,38.13
2018-10-18T17:36:13.591Z,38.30
2018-10-18T17:38:44.162Z,37.67
2018-10-18T17:41:14.579Z,35.33
2018-10-18T17:43:44.858Z,37.43
2018-10-18T17:46:15.159Z,37.10
2018-10-18T17:48:45.913Z,42.43
2018-10-18T17:51:16.202Z,37.13
2018-10-18T17:53:46.407Z,37.47
2018-10-18T17:56:16.837Z,36.60
2018-10-18T17:58:47.055Z,37.30
2018-10-18T18:01:17.360Z,36.17
2018-10-18T18:03:47.594Z,36.70
2018-10-18T18:06:18.016Z,38.50
2018-10-18T18:08:48.071Z,36.67
2018-10-18T18:11:18.401Z,40.07
2018-10-18T18:13:48.693Z,44.87
2018-10-18T18:16:18.911Z,41.50
2018-10-18T18:18:49.242Z,42.60
2018-10-18T18:21:19.522Z,40.40
2018-10-18T18:23:49.747Z,39.67
2018-10-18T18:26:20.006Z,40.47
2018-10-18T18:28:51.502Z,38.83
2018-10-18T18:31:21.935Z,41.53
2018-10-18T18:33:52.158Z,39.40
2018-10-18T18:36:22.462Z,42.53
2018-10-18T18:38:52.763Z,43.00
2018-10-18T18:41:23.179Z,40.97
2018-10-18T18:43:53.690Z,39.03
2018-10-18T18:46:24.258Z,42.27
2018-10-18T18:48:54.594Z,39.80
2018-10-18T18:51:24.915Z,42.67
2018-10-18T18:53:55.249Z,42.60
2018-10-18T18:56:26.739Z,38.93
2018-10-18T18:58:57.088Z,44.40
2018-10-18T19:01:27.561Z,40.87
2018-10-18T19:03:58.047Z,41.43
2018-10-18T19:06:28.607Z,44.10
2018-10-18T19:08:59.048Z,44.07
2018-10-18T19:11:30.003Z,43.63
2018-10-18T19:14:00.754Z,46.77
2018-10-18T19:16:31.686Z,43.20
2018-10-18T19:19:02.139Z,54.23
2018-10-18T19:21:32.799Z,51.23
2018-10-18T19:24:03.161Z,49.07
2018-10-18T19:26:34.739Z,52.80
2018-10-18T19:29:05.057Z,47.10
2018-10-18T19:31:35.367Z,48.60
2018-10-18T19:34:05.662Z,43.27
2018-10-18T19:36:36.179Z,45.13
2018-10-18T19:39:08.447Z,44.97
2018-10-18T19:41:39.601Z,44.30
2018-10-18T19:44:09.977Z,53.23
2018-10-18T19:46:40.298Z,48.60
2018-10-18T19:49:10.779Z,41.97
2018-10-18T19:51:41.183Z,48.37
2018-10-18T19:54:11.427Z,45.93
2018-10-18T19:56:42.733Z,52.70
2018-10-18T19:59:13.996Z,51.60
2018-10-18T20:01:44.553Z,48.07
2018-10-18T20:04:15.441Z,51.80
2018-10-18T20:06:46.895Z,45.70
2018-10-18T20:09:17.838Z,57.13
2018-10-18T20:11:48.418Z,46.90
2018-10-18T20:14:19.058Z,50.40
2018-10-18T20:16:50.028Z,52.63
2018-10-18T20:19:21.248Z,52.53
2018-10-18T20:21:51.698Z,48.90
2018-10-18T20:24:21.979Z,49.10
2018-10-18T20:26:52.326Z,48.43
2018-10-18T20:29:22.598Z,51.73
2018-10-18T20:31:52.890Z,50.23
2018-10-18T20:34:23.147Z,52.57
2018-10-18T20:36:53.503Z,58.33
2018-10-18T20:39:23.783Z,58.87
2018-10-18T20:41:54.061Z,68.40
2018-10-18T20:44:24.933Z,54.83
2018-10-18T20:46:56.366Z,59.13
2018-10-18T20:49:27.126Z,57.50
2018-10-18T20:51:57.390Z,66.00
2018-10-18T20:54:28.039Z,59.33
2018-10-18T20:56:58.431Z,59.03
2018-10-18T20:59:28.940Z,56.43
2018-10-18T21:01:59.794Z,59.00
2018-10-18T21:04:31.018Z,61.33
2018-10-18T21:07:01.285Z,59.90
2018-10-18T21:09:31.927Z,60.83
2018-10-18T21:12:03.236Z,64.93
2018-10-18T21:14:33.446Z,64.30
2018-10-18T21:17:04.522Z,65.30
2018-10-18T21:19:35.240Z,63.33
2018-10-18T21:22:05.979Z,70.60
2018-10-18T21:24:36.490Z,80.50
2018-10-18T21:27:06.853Z,67.73
2018-10-18T21:29:38.070Z,65.40
2018-10-18T21:32:08.642Z,69.80
2018-10-18T21:34:39.412Z,64.37
2018-10-18T21:37:09.817Z,66.93
2018-10-18T21:39:41.259Z,64.03
2018-10-18T21:42:11.581Z,66.90
2018-10-18T21:44:42.327Z,77.77
2018-10-18T21:47:13.189Z,71.47
2018-10-18T21:49:44.057Z,68.23
2018-10-18T21:52:14.470Z,77.17
2018-10-18T21:54:44.957Z,80.10
2018-10-18T21:57:15.304Z,79.97
2018-10-18T21:59:45.629Z,85.63
2018-10-18T22:02:16.310Z,90.33
2018-10-18T22:04:46.573Z,93.30
2018-10-18T22:07:16.880Z,91.87
2018-10-18T22:09:47.282Z,84.90
2018-10-18T22:12:17.741Z,90.77
2018-10-18T22:14:48.002Z,95.30
2018-10-18T22:17:18.230Z,101.17
2018-10-18T22:19:48.707Z,90.20
2018-10-18T22:22:19.129Z,97.80
2018-10-18T22:24:49.704Z,107.67
2018-10-18T22:27:20.225Z,93.60
2018-10-18T22:29:50.626Z,94.30
2018-10-18T22:32:20.887Z,94.37
2018-10-18T22:34:51.856Z,95.07
2018-10-18T22:37:22.274Z,96.33
2018-10-18T22:39:52.538Z,94.53
2018-10-18T22:42:22.814Z,106.27
2018-10-18T22:44:53.939Z,104.93
2018-10-18T22:47:24.283Z,103.97
2018-10-18T22:49:54.574Z,100.73
2018-10-18T22:52:24.843Z,100.37
2018-10-18T22:54:55.173Z,100.60
2018-10-18T22:57:25.509Z,105.77
2018-10-18T22:59:55.786Z,100.80
2018-10-18T23:02:26.049Z,103.37
2018-10-18T23:04:56.669Z,99.27
2018-10-18T23:07:26.929Z,99.63
2018-10-18T23:09:57.226Z,108.77
2018-10-18T23:12:27.885Z,104.53
2018-10-18T23:14:58.204Z,110.63
2018-10-18T23:17:28.648Z,110.27
2018-10-18T23:19:59.040Z,112.53
2018-10-18T23:22:29.494Z,108.27
2018-10-18T23:24:59.882Z,106.17
2018-10-18T23:27:32.181Z,101.57
2018-10-18T23:30:02.470Z,101.63
2018-10-18T23:32:32.877Z,110.03
2018-10-18T23:35:03.265Z,110.57
2018-10-18T23:37:34.088Z,102.77
2018-10-18T23:40:05.369Z,104.90
2018-10-18T23:42:35.898Z,101.60
2018-10-18T23:45:07.415Z,112.17
2018-10-18T23:47:37.818Z,105.50
2018-10-18T23:50:08.142Z,105.80
2018-10-18T23:52:38.412Z,105.47
2018-10-18T23:55:08.738Z,106.50
2018-10-18T23:57:39.014Z,114.67
